createdAt,value
2019-05-14T00:00:33.866Z,91.30
2019-05-14T00:03:03.869Z,91.50
2019-05-14T00:05:33.857Z,91.50
2019-05-14T00:08:03.794Z,91.40
2019-05-14T00:10:33.722Z,91.40
2019-05-14T00:13:03.612Z,91.70
2019-05-14T00:15:33.551Z,91.80
2019-05-14T00:18:03.500Z,91.30
2019-05-14T00:20:33.505Z,91.90
2019-05-14T00:23:03.482Z,92.40
2019-05-14T00:25:33.505Z,92.50
2019-05-14T00:28:03.431Z,92.50
2019-05-14T00:30:33.441Z,92.90
2019-05-14T00:33:03.413Z,92.90
2019-05-14T00:35:35.771Z,93.10
2019-05-14T00:38:04.965Z,93.00
2019-05-14T00:40:34.955Z,93.10
2019-05-14T00:43:04.901Z,92.60
2019-05-14T00:45:34.897Z,93.50
2019-05-14T00:48:04.828Z,93.50
2019-05-14T00:50:34.840Z,93.30
2019-05-14T00:53:04.807Z,93.60
2019-05-14T00:55:34.762Z,93.70
2019-05-14T00:58:04.691Z,93.90
2019-05-14T01:00:35.566Z,94.10
2019-05-14T01:03:05.492Z,93.90
2019-05-14T01:05:35.477Z,94.10
2019-05-14T01:08:05.386Z,93.80
2019-05-14T01:10:35.390Z,94.20
2019-05-14T01:13:05.281Z,94.20
2019-05-14T01:15:35.243Z,94.10
2019-05-14T01:18:05.196Z,94.60
2019-05-14T01:20:35.229Z,94.60
2019-05-14T01:23:05.211Z,94.80
2019-05-14T01:25:35.153Z,94.90
2019-05-14T01:28:05.111Z,94.90
2019-05-14T01:30:35.034Z,95.20
2019-05-14T01:33:04.963Z,95.00
2019-05-14T01:35:34.951Z,94.70
2019-05-14T01:38:04.938Z,95.10
2019-05-14T01:40:34.890Z,95.50
2019-05-14T01:43:04.789Z,95.50
2019-05-14T01:45:34.713Z,95.00
2019-05-14T01:48:04.634Z,95.50
2019-05-14T01:50:34.625Z,95.30
2019-05-14T01:53:04.677Z,95.70
2019-05-14T01:55:34.701Z,95.50
2019-05-14T02:01:31.334Z,95.90
2019-05-14T02:04:02.314Z,95.90
2019-05-14T02:06:32.452Z,96.20
2019-05-14T02:09:02.416Z,96.50
2019-05-14T02:11:33.387Z,96.20
2019-05-14T02:14:03.440Z,96.60
2019-05-14T02:16:33.385Z,96.80
2019-05-14T02:19:04.423Z,96.90
2019-05-14T02:21:34.443Z,96.40
2019-05-14T02:24:04.425Z,96.70
2019-05-14T02:26:34.364Z,96.90
2019-05-14T02:29:04.334Z,96.90
2019-05-14T02:31:34.353Z,97.50
2019-05-14T02:34:04.484Z,97.40
2019-05-14T02:36:34.436Z,97.40
2019-05-14T02:39:09.776Z,97.40
2019-05-14T02:41:39.168Z,97.50
2019-05-14T02:44:10.122Z,97.50
2019-05-14T02:46:40.767Z,97.60
2019-05-14T02:49:10.872Z,97.70
2019-05-14T02:51:40.896Z,98.10
2019-05-14T02:54:10.897Z,98.10
2019-05-14T02:56:40.897Z,98.00
2019-05-14T02:59:10.856Z,98.30
2019-05-14T03:01:41.044Z,98.40
2019-05-14T03:04:11.133Z,98.30
2019-05-14T03:06:41.155Z,98.30
2019-05-14T03:09:11.051Z,98.30
2019-05-14T03:11:41.046Z,98.10
2019-05-14T03:14:12.064Z,97.90
2019-05-14T03:16:42.115Z,98.40
2019-05-14T03:19:12.179Z,98.40
2019-05-14T03:21:42.099Z,98.60
2019-05-14T03:24:12.017Z,98.50
2019-05-14T03:26:41.999Z,98.80
2019-05-14T03:29:12.015Z,98.70
2019-05-14T03:31:43.338Z,98.70
2019-05-14T03:34:14.528Z,98.90
2019-05-14T03:36:44.674Z,98.80
2019-05-14T03:39:14.694Z,99.10
2019-05-14T03:41:44.679Z,99.10
2019-05-14T03:44:14.613Z,99.20
2019-05-14T03:46:54.301Z,99.00
2019-05-14T03:49:19.644Z,98.80
2019-05-14T03:51:49.808Z,99.00
2019-05-14T03:54:19.661Z,99.20
2019-05-14T03:56:49.984Z,99.40
2019-05-14T03:59:20.324Z,99.40
2019-05-14T04:01:51.299Z,99.40
2019-05-14T04:04:22.455Z,99.50
2019-05-14T04:06:52.453Z,99.70
2019-05-14T04:09:22.468Z,99.70
2019-05-14T04:11:53.057Z,99.40
2019-05-14T04:14:23.268Z,99.70
2019-05-14T04:17:05.337Z,99.60
2019-05-14T04:19:25.153Z,99.70
2019-05-14T04:21:55.280Z,99.80
2019-05-14T04:24:25.224Z,99.50
2019-05-14T04:27:05.819Z,99.50
2019-05-14T04:29:30.297Z,99.90
2019-05-14T04:32:00.129Z,99.50
2019-05-14T04:34:31.501Z,99.40
2019-05-14T04:37:01.397Z,99.40
2019-05-14T04:39:31.349Z,99.40
2019-05-14T04:42:01.316Z,99.30
2019-05-14T04:44:31.440Z,99.40
2019-05-14T04:47:20.257Z,99.30
2019-05-14T04:49:33.011Z,99.10
2019-05-14T04:52:03.211Z,99.30
2019-05-14T04:54:33.259Z,98.90
2019-05-14T04:57:03.280Z,98.60
2019-05-14T04:59:33.262Z,98.10
2019-05-14T05:02:03.167Z,98.20
2019-05-14T05:04:33.123Z,98.20
2019-05-14T05:07:03.041Z,97.80
2019-05-14T05:09:33.002Z,97.60
2019-05-14T05:12:03.154Z,97.80
2019-05-14T05:14:33.148Z,97.70
2019-05-14T05:17:03.143Z,97.20
2019-05-14T05:19:34.161Z,96.70
2019-05-14T05:22:04.099Z,96.80
2019-05-14T05:24:34.087Z,96.20
2019-05-14T05:27:04.044Z,96.60
2019-05-14T05:29:34.947Z,96.00
2019-05-14T05:32:04.855Z,95.50
2019-05-14T05:34:34.807Z,95.70
2019-05-14T05:37:04.748Z,95.10
2019-05-14T05:39:34.746Z,94.30
2019-05-14T05:42:04.704Z,94.80
2019-05-14T05:44:34.682Z,93.80
2019-05-14T05:47:04.667Z,93.70
2019-05-14T05:49:34.627Z,93.40
2019-05-14T05:52:04.579Z,92.20
2019-05-14T05:54:35.580Z,93.30
2019-05-14T05:57:05.495Z,93.20
2019-05-14T05:59:35.484Z,93.10
2019-05-14T06:02:05.394Z,93.90
2019-05-14T06:04:35.372Z,92.20
2019-05-14T06:07:05.314Z,92.10
2019-05-14T06:09:35.257Z,91.40
2019-05-14T06:12:05.264Z,90.90
2019-05-14T06:14:35.207Z,90.70
2019-05-14T06:17:05.139Z,90.20
2019-05-14T06:19:35.148Z,90.60
2019-05-14T06:22:05.121Z,90.00
2019-05-14T06:24:35.298Z,90.00
2019-05-14T06:27:05.201Z,90.30
2019-05-14T06:29:35.165Z,90.30
2019-05-14T06:32:05.167Z,90.60
2019-05-14T06:34:35.108Z,90.20
2019-05-14T06:37:05.047Z,90.00
2019-05-14T06:39:35.012Z,90.20
2019-05-14T06:42:04.980Z,90.00
2019-05-14T06:44:34.984Z,88.70
2019-05-14T06:47:05.027Z,88.30
2019-05-14T06:49:35.016Z,88.50
2019-05-14T06:52:04.955Z,88.40
2019-05-14T06:54:34.888Z,89.00
2019-05-14T06:57:04.951Z,89.00
2019-05-14T06:59:34.965Z,89.10
2019-05-14T07:02:05.004Z,89.10
2019-05-14T07:04:34.989Z,88.80
2019-05-14T07:07:04.909Z,88.40
2019-05-14T07:09:34.903Z,84.80
2019-05-14T07:12:04.869Z,86.50
2019-05-14T07:14:34.868Z,83.90
2019-05-14T07:17:04.900Z,82.40
2019-05-14T07:19:34.836Z,81.10
2019-05-14T07:22:04.785Z,82.00
2019-05-14T07:24:37.177Z,80.90
2019-05-14T07:27:09.214Z,80.10
2019-05-14T07:29:38.791Z,81.40
2019-05-14T07:32:09.261Z,82.10
2019-05-14T07:34:39.223Z,82.20
2019-05-14T07:37:09.566Z,79.50
2019-05-14T07:39:39.558Z,80.30
2019-05-14T07:42:10.084Z,80.80
2019-05-14T07:44:40.028Z,79.50
2019-05-14T07:47:09.975Z,80.20
2019-05-14T07:49:39.959Z,79.20
2019-05-14T07:52:10.051Z,80.40
2019-05-14T07:54:40.063Z,79.80
2019-05-14T07:57:10.195Z,78.90
2019-05-14T07:59:40.115Z,76.30
2019-05-14T08:02:12.753Z,74.20
2019-05-14T08:04:41.663Z,73.40
2019-05-14T08:07:11.704Z,73.30
2019-05-14T08:09:41.643Z,70.00
2019-05-14T08:12:12.847Z,70.70
2019-05-14T08:14:57.129Z,70.70
2019-05-14T08:17:14.893Z,68.90
2019-05-14T08:19:44.847Z,66.10
2019-05-14T08:22:14.886Z,65.30
2019-05-14T08:24:44.851Z,66.10
2019-05-14T08:27:14.790Z,64.00
2019-05-14T08:29:44.703Z,65.80
2019-05-14T08:32:14.704Z,61.30
2019-05-14T08:34:44.681Z,61.10
2019-05-14T08:37:14.673Z,61.90
2019-05-14T08:39:44.529Z,59.40
2019-05-14T08:42:14.467Z,61.50
2019-05-14T08:44:47.869Z,59.50
2019-05-14T08:47:18.280Z,60.50
2019-05-14T08:49:50.857Z,65.70
2019-05-14T08:52:20.478Z,64.80
2019-05-14T08:55:05.532Z,63.50
2019-05-14T08:57:22.076Z,61.20
2019-05-14T08:59:52.239Z,58.60
2019-05-14T09:02:22.188Z,56.20
2019-05-14T09:04:54.605Z,57.00
2019-05-14T09:07:23.791Z,52.70
2019-05-14T09:09:53.791Z,54.70
2019-05-14T09:12:23.760Z,50.80
2019-05-14T09:14:53.671Z,52.90
2019-05-14T09:17:23.664Z,56.20
2019-05-14T09:20:02.281Z,58.10
2019-05-14T09:22:25.352Z,59.70
2019-05-14T09:24:55.339Z,62.90
2019-05-14T09:27:25.324Z,60.60
2019-05-14T09:29:55.327Z,58.60
2019-05-14T09:32:25.291Z,56.60
2019-05-14T09:34:55.210Z,54.80
2019-05-14T09:37:25.152Z,54.60
2019-05-14T09:39:55.083Z,54.00
2019-05-14T09:42:25.151Z,55.10
2019-05-14T09:44:55.087Z,58.20
2019-05-14T09:47:25.022Z,55.90
2019-05-14T09:49:54.971Z,52.20
2019-05-14T09:52:24.930Z,49.80
2019-05-14T09:54:54.990Z,53.40
2019-05-14T09:57:24.924Z,50.60
2019-05-14T09:59:54.887Z,52.70
2019-05-14T10:02:25.941Z,55.10
2019-05-14T10:04:55.932Z,52.40
2019-05-14T10:07:28.595Z,54.40
2019-05-14T10:09:57.495Z,53.30
2019-05-14T10:12:27.448Z,53.50
2019-05-14T10:14:59.181Z,54.60
2019-05-14T10:17:29.160Z,54.20
2019-05-14T10:20:00.112Z,52.20
2019-05-14T10:22:30.043Z,54.30
2019-05-14T10:25:00.082Z,53.40
2019-05-14T10:27:30.035Z,53.50
2019-05-14T10:29:59.980Z,51.20
2019-05-14T10:32:29.890Z,51.70
2019-05-14T10:34:59.851Z,53.00
2019-05-14T10:37:29.848Z,51.10
2019-05-14T10:39:59.819Z,49.80
2019-05-14T10:42:29.735Z,50.00
2019-05-14T10:44:59.751Z,50.50
2019-05-14T10:47:29.716Z,52.40
2019-05-14T10:50:00.092Z,50.50
2019-05-14T10:52:30.178Z,50.30
2019-05-14T10:55:00.212Z,51.80
2019-05-14T10:57:30.180Z,54.10
2019-05-14T11:00:00.143Z,54.80
2019-05-14T11:02:30.067Z,54.10
2019-05-14T11:05:00.011Z,49.60
2019-05-14T11:07:30.021Z,50.20
2019-05-14T11:10:00.927Z,51.60
2019-05-14T11:12:30.844Z,47.40
2019-05-14T11:15:00.829Z,51.00
2019-05-14T11:17:30.823Z,47.50
2019-05-14T11:20:00.792Z,44.70
2019-05-14T11:22:30.707Z,47.40
2019-05-14T11:25:00.738Z,45.90
2019-05-14T11:27:30.699Z,44.60
2019-05-14T11:30:00.755Z,44.50
2019-05-14T11:32:31.847Z,43.80
2019-05-14T11:35:01.795Z,41.80
2019-05-14T11:37:32.866Z,41.60
2019-05-14T11:40:02.862Z,40.90
2019-05-14T11:42:32.863Z,42.00
2019-05-14T11:45:02.841Z,43.80
2019-05-14T11:47:32.810Z,43.60
2019-05-14T11:50:02.921Z,47.40
2019-05-14T11:52:32.739Z,46.40
2019-05-14T11:55:03.692Z,46.10
2019-05-14T11:57:33.615Z,45.00
2019-05-14T12:00:03.945Z,43.80
2019-05-14T12:02:34.128Z,44.60
2019-05-14T12:05:04.103Z,42.40
2019-05-14T12:07:34.667Z,43.00
2019-05-14T12:10:04.965Z,43.70
2019-05-14T12:12:35.059Z,44.10
2019-05-14T12:15:06.081Z,42.50
2019-05-14T12:17:38.993Z,41.70
2019-05-14T12:20:08.830Z,44.60
2019-05-14T12:22:39.431Z,42.30
2019-05-14T12:25:09.730Z,42.30
2019-05-14T12:27:39.643Z,43.70
2019-05-14T12:30:10.623Z,45.50
2019-05-14T12:32:40.528Z,42.80
2019-05-14T12:35:10.658Z,42.10
2019-05-14T12:37:40.632Z,43.00
2019-05-14T12:40:10.664Z,42.40
2019-05-14T12:42:40.651Z,44.30
2019-05-14T12:45:10.835Z,42.30
2019-05-14T12:47:40.777Z,41.90
2019-05-14T12:50:10.711Z,45.80
2019-05-14T12:52:40.665Z,40.30
2019-05-14T12:55:11.224Z,40.80
2019-05-14T12:57:41.292Z,42.10
2019-05-14T13:00:11.197Z,38.80
2019-05-14T13:02:41.139Z,42.00
2019-05-14T13:05:11.069Z,40.00
2019-05-14T13:07:41.763Z,44.10
2019-05-14T13:10:11.930Z,42.60
2019-05-14T13:12:41.876Z,42.00
2019-05-14T13:15:11.786Z,41.30
2019-05-14T13:17:41.908Z,42.00
2019-05-14T13:20:14.097Z,43.60
2019-05-14T13:22:46.375Z,42.30
2019-05-14T13:25:18.425Z,43.90
2019-05-14T13:27:47.408Z,41.00
2019-05-14T13:30:18.532Z,43.20
2019-05-14T13:32:49.894Z,40.80
2019-05-14T13:35:19.896Z,39.60
2019-05-14T13:37:49.883Z,41.60
2019-05-14T13:40:21.222Z,38.30
2019-05-14T13:42:51.583Z,41.70
2019-05-14T13:45:21.597Z,42.30
2019-05-14T13:47:51.555Z,43.90
2019-05-14T13:50:21.557Z,43.90
2019-05-14T13:53:06.565Z,47.70
2019-05-14T13:55:26.381Z,47.00
2019-05-14T13:57:54.703Z,48.30
2019-05-14T14:00:24.724Z,48.60
2019-05-14T14:02:54.739Z,46.50
2019-05-14T14:05:24.735Z,46.00
2019-05-14T14:07:54.732Z,45.90
2019-05-14T14:10:24.682Z,44.20
2019-05-14T14:12:54.708Z,46.00
2019-05-14T14:15:24.640Z,46.40
2019-05-14T14:17:54.575Z,43.70
2019-05-14T14:20:24.511Z,45.30
2019-05-14T14:22:54.484Z,45.30
2019-05-14T14:25:24.455Z,45.50
2019-05-14T14:27:54.509Z,47.10
2019-05-14T14:30:24.467Z,47.40
2019-05-14T14:32:54.484Z,48.00
2019-05-14T14:35:24.882Z,49.00
2019-05-14T14:37:55.044Z,45.90
2019-05-14T14:40:24.971Z,44.70
2019-05-14T14:42:54.911Z,44.10
2019-05-14T14:45:24.839Z,47.30
2019-05-14T14:47:54.777Z,46.20
2019-05-14T14:50:24.779Z,46.80
2019-05-14T14:52:54.798Z,45.10
2019-05-14T14:55:24.812Z,45.80
2019-05-14T14:57:55.586Z,45.20
2019-05-14T15:00:25.811Z,45.90
2019-05-14T15:02:59.434Z,46.50
2019-05-14T15:05:29.695Z,45.90
2019-05-14T15:08:00.315Z,47.40
2019-05-14T15:10:30.413Z,42.50
2019-05-14T15:13:00.424Z,44.30
2019-05-14T15:15:32.235Z,45.40
2019-05-14T15:18:02.035Z,42.10
2019-05-14T15:20:32.000Z,43.60
2019-05-14T15:23:01.970Z,43.00
2019-05-14T15:25:31.868Z,44.20
2019-05-14T15:28:01.899Z,43.40
2019-05-14T15:30:31.857Z,44.80
2019-05-14T15:33:01.796Z,47.30
2019-05-14T15:35:31.712Z,46.80
2019-05-14T15:38:01.745Z,46.40
2019-05-14T15:40:31.728Z,47.40
2019-05-14T15:43:02.140Z,47.90
2019-05-14T15:45:32.199Z,48.80
2019-05-14T15:48:03.879Z,48.20
2019-05-14T15:50:33.856Z,48.80
2019-05-14T15:53:03.840Z,49.20
2019-05-14T15:55:33.788Z,48.00
2019-05-14T15:58:03.762Z,50.10
2019-05-14T16:00:35.036Z,48.00
2019-05-14T16:03:05.023Z,49.50
2019-05-14T16:05:34.940Z,48.80
2019-05-14T16:08:05.006Z,46.50
2019-05-14T16:10:34.939Z,46.60
2019-05-14T16:13:04.957Z,48.70
2019-05-14T16:15:34.875Z,49.00
2019-05-14T16:18:11.160Z,48.10
2019-05-14T16:20:39.262Z,47.10
2019-05-14T16:23:10.794Z,46.60
2019-05-14T16:25:40.283Z,46.50
2019-05-14T16:28:10.252Z,45.30
2019-05-14T16:30:40.221Z,46.90
2019-05-14T16:33:10.220Z,46.90
2019-05-14T16:35:40.339Z,48.10
2019-05-14T16:38:10.331Z,49.20
2019-05-14T16:40:40.252Z,46.10
2019-05-14T16:43:10.494Z,48.00
2019-05-14T16:45:40.512Z,46.50
2019-05-14T16:48:11.117Z,47.80
2019-05-14T16:50:42.420Z,47.50
2019-05-14T16:53:12.353Z,47.00
2019-05-14T16:55:42.335Z,48.30
2019-05-14T16:58:13.418Z,48.30
2019-05-14T17:00:43.384Z,47.90
2019-05-14T17:03:13.303Z,48.00
2019-05-14T17:05:43.745Z,47.90
2019-05-14T17:08:14.743Z,47.90
2019-05-14T17:10:44.936Z,49.40
2019-05-14T17:13:14.852Z,49.50
2019-05-14T17:15:44.839Z,48.60
2019-05-14T17:18:14.827Z,49.00
2019-05-14T17:20:44.857Z,49.10
2019-05-14T17:23:15.177Z,49.90
2019-05-14T17:25:45.127Z,49.50
2019-05-14T17:28:15.064Z,51.40
2019-05-14T17:30:45.060Z,52.30
2019-05-14T17:33:15.010Z,52.80
2019-05-14T17:35:45.027Z,52.20
2019-05-14T17:38:15.003Z,54.10
2019-05-14T17:40:44.974Z,53.40
2019-05-14T17:43:14.891Z,56.10
2019-05-14T17:45:44.867Z,53.20
2019-05-14T17:48:14.811Z,55.00
2019-05-14T17:50:45.172Z,56.20
2019-05-14T17:53:15.088Z,54.80
2019-05-14T17:55:50.072Z,52.70
2019-05-14T17:58:18.909Z,53.70
2019-05-14T18:00:48.287Z,54.10
2019-05-14T18:03:18.491Z,56.00
2019-05-14T18:05:48.483Z,55.40
2019-05-14T18:08:18.648Z,54.70
2019-05-14T18:10:49.717Z,55.10
2019-05-14T18:13:19.832Z,55.30
2019-05-14T18:15:49.845Z,55.90
2019-05-14T18:18:20.895Z,55.80
2019-05-14T18:20:50.937Z,57.00
2019-05-14T18:23:20.955Z,56.30
2019-05-14T18:26:03.814Z,56.10
2019-05-14T18:28:22.672Z,57.70
2019-05-14T18:30:52.681Z,58.80
2019-05-14T18:33:22.619Z,57.50
2019-05-14T18:35:52.563Z,58.30
2019-05-14T18:38:22.478Z,60.20
2019-05-14T18:40:52.403Z,58.20
2019-05-14T18:43:22.328Z,60.20
2019-05-14T18:45:52.271Z,60.20
2019-05-14T18:48:22.196Z,59.70
2019-05-14T18:50:52.160Z,59.70
2019-05-14T18:53:22.106Z,61.50
2019-05-14T18:55:52.071Z,59.10
2019-05-14T18:58:22.048Z,61.90
2019-05-14T19:00:52.020Z,60.60
2019-05-14T19:03:21.986Z,60.20
2019-05-14T19:05:51.955Z,62.80
2019-05-14T19:08:21.907Z,61.90
2019-05-14T19:10:51.906Z,62.30
2019-05-14T19:13:22.899Z,65.90
2019-05-14T19:15:52.839Z,64.40
2019-05-14T19:18:22.779Z,65.50
2019-05-14T19:20:52.756Z,66.60
2019-05-14T19:23:22.691Z,67.50
2019-05-14T19:25:52.685Z,67.60
2019-05-14T19:28:23.630Z,67.60
2019-05-14T19:30:53.579Z,67.70
2019-05-14T19:33:23.519Z,70.50
2019-05-14T19:35:53.480Z,69.70
2019-05-14T19:38:23.455Z,71.60
2019-05-14T19:40:53.392Z,70.40
2019-05-14T19:43:23.368Z,71.40
2019-05-14T19:45:53.267Z,72.90
2019-05-14T19:48:23.275Z,73.10
2019-05-14T19:50:53.319Z,73.30
2019-05-14T19:53:23.326Z,74.30
2019-05-14T19:55:53.301Z,74.60
2019-05-14T19:58:23.327Z,74.60
2019-05-14T20:00:53.599Z,75.00
2019-05-14T20:03:23.533Z,74.80
2019-05-14T20:05:53.446Z,76.00
2019-05-14T20:08:23.423Z,75.60
2019-05-14T20:10:53.391Z,76.50
2019-05-14T20:13:23.404Z,76.00
2019-05-14T20:15:53.480Z,77.00
2019-05-14T20:18:23.496Z,77.50
2019-05-14T20:20:53.508Z,77.70
2019-05-14T20:23:23.552Z,76.40
2019-05-14T20:25:53.546Z,77.00
2019-05-14T20:28:23.671Z,77.30
2019-05-14T20:30:53.727Z,76.10
2019-05-14T20:33:23.759Z,77.40
2019-05-14T20:35:53.773Z,77.60
2019-05-14T20:38:23.891Z,77.00
2019-05-14T20:40:54.915Z,77.70
2019-05-14T20:43:25.855Z,77.60
2019-05-14T20:45:55.828Z,77.00
2019-05-14T20:48:28.060Z,77.30
2019-05-14T20:50:58.609Z,77.70
2019-05-14T20:53:29.186Z,77.10
2019-05-14T20:56:00.186Z,77.10
2019-05-14T20:58:30.191Z,77.90
2019-05-14T21:01:00.129Z,77.70
2019-05-14T21:03:30.031Z,78.30
2019-05-14T21:05:59.979Z,76.30
2019-05-14T21:08:30.087Z,77.90
2019-05-14T21:11:00.044Z,77.00
2019-05-14T21:13:30.056Z,78.70
2019-05-14T21:16:00.068Z,78.60
2019-05-14T21:18:35.039Z,78.50
2019-05-14T21:21:01.616Z,79.80
2019-05-14T21:23:31.587Z,79.10
2019-05-14T21:26:01.498Z,78.30
2019-05-14T21:28:31.505Z,79.20
2019-05-14T21:31:01.437Z,77.60
2019-05-14T21:33:31.435Z,80.10
2019-05-14T21:36:01.352Z,79.20
2019-05-14T21:38:31.289Z,80.50
2019-05-14T21:41:01.295Z,81.10
2019-05-14T21:43:31.252Z,80.70
2019-05-14T21:46:01.198Z,80.20
2019-05-14T21:48:31.183Z,79.60
2019-05-14T21:51:01.203Z,81.70
2019-05-14T21:53:31.168Z,83.10
2019-05-14T21:56:01.071Z,82.50
2019-05-14T21:58:31.037Z,82.60
2019-05-14T22:01:01.050Z,82.50
2019-05-14T22:03:31.166Z,83.00
2019-05-14T22:06:01.138Z,82.60
2019-05-14T22:08:31.152Z,82.70
2019-05-14T22:11:02.184Z,81.80
2019-05-14T22:13:32.271Z,82.10
2019-05-14T22:16:02.325Z,83.20
2019-05-14T22:18:32.504Z,82.70
2019-05-14T22:21:02.484Z,82.50
2019-05-14T22:23:32.506Z,83.50
2019-05-14T22:26:02.436Z,83.90
2019-05-14T22:28:32.347Z,83.90
2019-05-14T22:31:02.343Z,84.50
2019-05-14T22:33:32.335Z,84.30
2019-05-14T22:36:02.307Z,85.30
2019-05-14T22:38:32.215Z,85.40
2019-05-14T22:41:02.159Z,85.80
2019-05-14T22:43:32.106Z,87.10
2019-05-14T22:46:02.142Z,86.10
2019-05-14T22:48:32.133Z,86.10
2019-05-14T22:51:02.070Z,86.50
2019-05-14T22:53:32.047Z,87.60
2019-05-14T22:56:02.046Z,87.20
2019-05-14T22:58:33.045Z,88.20
2019-05-14T23:01:14.457Z,87.00
2019-05-14T23:03:34.748Z,87.80
2019-05-14T23:06:04.782Z,87.30
2019-05-14T23:08:34.715Z,88.20
2019-05-14T23:11:04.736Z,87.50
2019-05-14T23:13:34.656Z,87.70
2019-05-14T23:16:04.691Z,88.80
2019-05-14T23:18:34.695Z,89.50
2019-05-14T23:21:04.831Z,87.80
2019-05-14T23:23:34.739Z,88.50
2019-05-14T23:26:04.696Z,88.10
2019-05-14T23:28:42.644Z,89.20
2019-05-14T23:31:08.335Z,88.60
2019-05-14T23:33:38.883Z,89.20
2019-05-14T23:36:09.018Z,89.20
2019-05-14T23:38:39.328Z,90.00
2019-05-14T23:41:09.252Z,89.90
2019-05-14T23:43:39.402Z,89.40
2019-05-14T23:46:09.652Z,90.30
2019-05-14T23:48:39.631Z,90.50
2019-05-14T23:51:09.664Z,89.60
2019-05-14T23:53:40.605Z,90.00
2019-05-14T23:56:10.580Z,90.30
2019-05-14T23:58:54.210Z,90.20
